San Agustin del Valle Ferti, Argentina
Current Conditions -  °F | °C
As of 9:00 PM on Wednesday 28 Jan 2015 (Local Time) from SAAR Reporting Station
Broken Clouds Broken Clouds  
Wind Chill: 72°   Ceiling: 10000
Heat Index: 72°   Visibility: 6mi
Dew Point: 66°   Wind: 9mph
Humidity: 83%   Direction: 160°SSE
Pressure: 29.88"   Gusts: NA
Location:  31.68°S, 60.93°W
Report Text: SAAR 290000Z 16008KT 9999 FEW018 SCT038BKN100 22/19 Q1012
Loading
Personal Weather Stations






























Interactive Weather Map New forecast layout! Learn more

10-Day Weather Forecast

Advertisements
Track Severe Weather on mobile